sensor_id;sensor_type;location;lat;lon;timestamp;temperature;humidity
2867;DHT22;1441;48.886;8.728;2023-11-21T00:01:51;8.80;99.90
2867;DHT22;1441;48.886;8.728;2023-11-21T00:04:17;8.90;99.90
2867;DHT22;1441;48.886;8.728;2023-11-21T00:06:42;8.90;99.90
2867;DHT22;1441;48.886;8.728;2023-11-21T00:09:08;8.80;99.90
2867;DHT22;1441;48.886;8.728;2023-11-21T00:11:35;8.90;99.90
2867;DHT22;1441;48.886;8.728;2023-11-21T00:14:00;8.90;99.90
2867;DHT22;1441;48.886;8.728;2023-11-21T00:16:26;8.90;99.90
2867;DHT22;1441;48.886;8.728;2023-11-21T00:18:51;8.90;99.90
2867;DHT22;1441;48.886;8.728;2023-11-21T00:21:17;8.90;99.90
2867;DHT22;1441;48.886;8.728;2023-11-21T00:23:42;8.90;99.90
2867;DHT22;1441;48.886;8.728;2023-11-21T00:26:08;8.90;99.90
2867;DHT22;1441;48.886;8.728;2023-11-21T00:28:33;9.20;99.90
2867;DHT22;1441;48.886;8.728;2023-11-21T00:30:59;9.10;99.90
2867;DHT22;1441;48.886;8.728;2023-11-21T00:33:25;9.10;99.90
2867;DHT22;1441;48.886;8.728;2023-11-21T00:35:50;9.10;99.90
2867;DHT22;1441;48.886;8.728;2023-11-21T00:38:16;9.10;99.90
2867;DHT22;1441;48.886;8.728;2023-11-21T00:40:45;9.10;99.90
2867;DHT22;1441;48.886;8.728;2023-11-21T00:43:10;9.00;99.90
2867;DHT22;1441;48.886;8.728;2023-11-21T00:45:36;9.00;99.90
2867;DHT22;1441;48.886;8.728;2023-11-21T00:48:02;8.90;99.90
2867;DHT22;1441;48.886;8.728;2023-11-21T00:50:30;8.90;99.90
2867;DHT22;1441;48.886;8.728;2023-11-21T00:52:56;8.90;99.90
2867;DHT22;1441;48.886;8.728;2023-11-21T00:55:22;8.90;99.90
2867;DHT22;1441;48.886;8.728;2023-11-21T00:57:48;8.90;99.90
2867;DHT22;1441;48.886;8.728;2023-11-21T01:00:13;8.90;99.90
2867;DHT22;1441;48.886;8.728;2023-11-21T01:02:43;8.90;99.90
2867;DHT22;1441;48.886;8.728;2023-11-21T01:05:10;8.90;99.90
2867;DHT22;1441;48.886;8.728;2023-11-21T01:07:36;8.90;99.90
2867;DHT22;1441;48.886;8.728;2023-11-21T01:10:03;8.90;99.90
2867;DHT22;1441;48.886;8.728;2023-11-21T01:12:31;9.00;99.90
2867;DHT22;1441;48.886;8.728;2023-11-21T01:14:56;9.00;99.90
2867;DHT22;1441;48.886;8.728;2023-11-21T01:17:25;9.00;99.90
2867;DHT22;1441;48.886;8.728;2023-11-21T01:19:51;9.00;99.90
2867;DHT22;1441;48.886;8.728;2023-11-21T01:22:16;9.00;99.90
2867;DHT22;1441;48.886;8.728;2023-11-21T01:24:43;9.00;99.90
2867;DHT22;1441;48.886;8.728;2023-11-21T01:27:08;9.00;99.90
2867;DHT22;1441;48.886;8.728;2023-11-21T01:29:34;9.10;99.90
2867;DHT22;1441;48.886;8.728;2023-11-21T01:32:02;9.10;99.90
2867;DHT22;1441;48.886;8.728;2023-11-21T01:34:27;9.10;99.90
2867;DHT22;1441;48.886;8.728;2023-11-21T01:36:53;9.10;99.90
2867;DHT22;1441;48.886;8.728;2023-11-21T01:39:19;9.10;99.90
2867;DHT22;1441;48.886;8.728;2023-11-21T01:41:52;9.10;99.90
2867;DHT22;1441;48.886;8.728;2023-11-21T01:44:17;9.10;99.90
2867;DHT22;1441;48.886;8.728;2023-11-21T01:46:51;9.00;99.90
2867;DHT22;1441;48.886;8.728;2023-11-21T01:49:17;9.00;99.90
2867;DHT22;1441;48.886;8.728;2023-11-21T01:51:48;9.00;99.90
2867;DHT22;1441;48.886;8.728;2023-11-21T01:54:15;9.00;99.90
2867;DHT22;1441;48.886;8.728;2023-11-21T01:56:43;9.00;99.90
2867;DHT22;1441;48.886;8.728;2023-11-21T01:59:10;9.00;99.90
2867;DHT22;1441;48.886;8.728;2023-11-21T02:01:36;9.00;99.90
2867;DHT22;1441;48.886;8.728;2023-11-21T02:04:02;9.00;99.90
2867;DHT22;1441;48.886;8.728;2023-11-21T02:06:28;9.00;99.90
2867;DHT22;1441;48.886;8.728;2023-11-21T02:08:56;9.00;99.90
2867;DHT22;1441;48.886;8.728;2023-11-21T02:11:25;9.10;99.90
2867;DHT22;1441;48.886;8.728;2023-11-21T02:13:53;9.10;99.90
2867;DHT22;1441;48.886;8.728;2023-11-21T02:16:19;9.00;99.90
2867;DHT22;1441;48.886;8.728;2023-11-21T02:18:47;9.00;99.90
2867;DHT22;1441;48.886;8.728;2023-11-21T02:21:14;9.00;99.90
2867;DHT22;1441;48.886;8.728;2023-11-21T02:23:39;9.00;99.90
2867;DHT22;1441;48.886;8.728;2023-11-21T02:26:09;8.90;99.90
2867;DHT22;1441;48.886;8.728;2023-11-21T02:28:35;8.90;99.90
2867;DHT22;1441;48.886;8.728;2023-11-21T02:31:01;8.90;99.90
2867;DHT22;1441;48.886;8.728;2023-11-21T02:33:28;8.90;99.90
2867;DHT22;1441;48.886;8.728;2023-11-21T02:35:54;9.00;99.90
2867;DHT22;1441;48.886;8.728;2023-11-21T02:38:21;9.00;99.90
2867;DHT22;1441;48.886;8.728;2023-11-21T02:40:46;9.00;99.90
2867;DHT22;1441;48.886;8.728;2023-11-21T02:43:12;9.00;99.90
2867;DHT22;1441;48.886;8.728;2023-11-21T02:45:37;9.00;99.90
2867;DHT22;1441;48.886;8.728;2023-11-21T02:48:03;8.90;99.90
2867;DHT22;1441;48.886;8.728;2023-11-21T02:50:29;8.90;99.90
2867;DHT22;1441;48.886;8.728;2023-11-21T02:52:55;8.90;99.90
2867;DHT22;1441;48.886;8.728;2023-11-21T02:55:23;8.90;99.90
2867;DHT22;1441;48.886;8.728;2023-11-21T02:57:50;8.90;99.90
2867;DHT22;1441;48.886;8.728;2023-11-21T03:00:16;8.90;99.90
2867;DHT22;1441;48.886;8.728;2023-11-21T03:02:42;9.00;99.90
2867;DHT22;1441;48.886;8.728;2023-11-21T03:05:09;9.00;99.90
2867;DHT22;1441;48.886;8.728;2023-11-21T03:07:36;9.00;99.90
2867;DHT22;1441;48.886;8.728;2023-11-21T03:10:02;8.90;99.90
2867;DHT22;1441;48.886;8.728;2023-11-21T03:12:29;8.90;99.90
2867;DHT22;1441;48.886;8.728;2023-11-21T03:14:55;8.90;99.90
2867;DHT22;1441;48.886;8.728;2023-11-21T03:17:20;8.90;99.90
2867;DHT22;1441;48.886;8.728;2023-11-21T03:19:46;8.90;99.90
2867;DHT22;1441;48.886;8.728;2023-11-21T03:22:11;8.80;99.90
2867;DHT22;1441;48.886;8.728;2023-11-21T03:24:37;8.80;99.90
2867;DHT22;1441;48.886;8.728;2023-11-21T03:27:04;8.80;99.90
2867;DHT22;1441;48.886;8.728;2023-11-21T03:29:29;8.80;99.90
2867;DHT22;1441;48.886;8.728;2023-11-21T03:31:55;8.80;99.90
2867;DHT22;1441;48.886;8.728;2023-11-21T03:34:27;8.80;99.90
2867;DHT22;1441;48.886;8.728;2023-11-21T03:36:53;8.80;99.90
2867;DHT22;1441;48.886;8.728;2023-11-21T03:39:21;8.70;99.90
2867;DHT22;1441;48.886;8.728;2023-11-21T03:41:47;8.70;99.90
2867;DHT22;1441;48.886;8.728;2023-11-21T03:44:13;8.70;99.90
2867;DHT22;1441;48.886;8.728;2023-11-21T03:46:39;8.60;99.90
2867;DHT22;1441;48.886;8.728;2023-11-21T03:49:04;8.70;99.90
2867;DHT22;1441;48.886;8.728;2023-11-21T03:51:30;8.80;99.90
2867;DHT22;1441;48.886;8.728;2023-11-21T03:53:55;8.70;99.90
2867;DHT22;1441;48.886;8.728;2023-11-21T03:56:21;8.80;99.90
2867;DHT22;1441;48.886;8.728;2023-11-21T03:58:49;8.70;99.90
2867;DHT22;1441;48.886;8.728;2023-11-21T04:01:24;8.60;99.90
2867;DHT22;1441;48.886;8.728;2023-11-21T04:03:50;8.60;99.90
2867;DHT22;1441;48.886;8.728;2023-11-21T04:06:17;8.60;99.90
2867;DHT22;1441;48.886;8.728;2023-11-21T04:08:46;8.60;99.90
2867;DHT22;1441;48.886;8.728;2023-11-21T04:11:12;8.50;99.90
2867;DHT22;1441;48.886;8.728;2023-11-21T04:13:38;8.50;99.90
2867;DHT22;1441;48.886;8.728;2023-11-21T04:16:06;8.50;99.90
2867;DHT22;1441;48.886;8.728;2023-11-21T04:18:31;8.40;99.90
2867;DHT22;1441;48.886;8.728;2023-11-21T04:20:57;8.50;99.90
2867;DHT22;1441;48.886;8.728;2023-11-21T04:23:23;8.50;99.90
2867;DHT22;1441;48.886;8.728;2023-11-21T04:25:48;8.50;99.90
2867;DHT22;1441;48.886;8.728;2023-11-21T04:28:14;8.50;99.90
2867;DHT22;1441;48.886;8.728;2023-11-21T04:30:39;8.50;99.90
2867;DHT22;1441;48.886;8.728;2023-11-21T04:33:06;8.50;99.90
2867;DHT22;1441;48.886;8.728;2023-11-21T04:35:33;8.50;99.90
2867;DHT22;1441;48.886;8.728;2023-11-21T04:37:58;8.40;99.90
2867;DHT22;1441;48.886;8.728;2023-11-21T04:40:24;8.40;99.90
2867;DHT22;1441;48.886;8.728;2023-11-21T04:42:49;8.50;99.90
2867;DHT22;1441;48.886;8.728;2023-11-21T04:45:15;8.40;99.90
2867;DHT22;1441;48.886;8.728;2023-11-21T04:47:41;8.40;99.90
2867;DHT22;1441;48.886;8.728;2023-11-21T04:50:06;8.40;99.90
2867;DHT22;1441;48.886;8.728;2023-11-21T04:52:32;8.50;99.90
2867;DHT22;1441;48.886;8.728;2023-11-21T04:54:58;8.50;99.90
2867;DHT22;1441;48.886;8.728;2023-11-21T04:57:26;8.50;99.90
2867;DHT22;1441;48.886;8.728;2023-11-21T04:59:54;8.50;99.90
2867;DHT22;1441;48.886;8.728;2023-11-21T05:02:19;8.50;99.90
2867;DHT22;1441;48.886;8.728;2023-11-21T05:04:47;8.50;99.90
2867;DHT22;1441;48.886;8.728;2023-11-21T05:07:12;8.50;99.90
2867;DHT22;1441;48.886;8.728;2023-11-21T05:09:42;8.50;99.90
2867;DHT22;1441;48.886;8.728;2023-11-21T05:12:09;8.50;99.90
2867;DHT22;1441;48.886;8.728;2023-11-21T05:14:35;8.40;99.90
2867;DHT22;1441;48.886;8.728;2023-11-21T05:17:00;8.40;99.90
2867;DHT22;1441;48.886;8.728;2023-11-21T05:19:27;8.30;99.90
2867;DHT22;1441;48.886;8.728;2023-11-21T05:21:54;8.30;99.90
2867;DHT22;1441;48.886;8.728;2023-11-21T05:24:19;8.20;99.90
2867;DHT22;1441;48.886;8.728;2023-11-21T05:26:45;8.20;99.90
2867;DHT22;1441;48.886;8.728;2023-11-21T05:29:10;8.20;99.90
2867;DHT22;1441;48.886;8.728;2023-11-21T05:31:36;8.20;99.90
2867;DHT22;1441;48.886;8.728;2023-11-21T05:34:03;8.20;99.90
2867;DHT22;1441;48.886;8.728;2023-11-21T05:36:30;8.10;99.90
2867;DHT22;1441;48.886;8.728;2023-11-21T05:38:56;8.10;99.90
2867;DHT22;1441;48.886;8.728;2023-11-21T05:41:21;8.10;99.90
2867;DHT22;1441;48.886;8.728;2023-11-21T05:43:47;8.00;99.90
2867;DHT22;1441;48.886;8.728;2023-11-21T05:46:12;8.00;99.90
2867;DHT22;1441;48.886;8.728;2023-11-21T05:48:38;8.00;99.90
2867;DHT22;1441;48.886;8.728;2023-11-21T05:51:07;7.90;99.90
2867;DHT22;1441;48.886;8.728;2023-11-21T05:53:34;7.90;99.90
2867;DHT22;1441;48.886;8.728;2023-11-21T05:55:59;7.90;99.90
2867;DHT22;1441;48.886;8.728;2023-11-21T05:58:25;7.90;99.90
2867;DHT22;1441;48.886;8.728;2023-11-21T06:00:51;7.90;99.90
2867;DHT22;1441;48.886;8.728;2023-11-21T06:03:16;8.00;99.90
2867;DHT22;1441;48.886;8.728;2023-11-21T06:05:42;8.00;99.90
2867;DHT22;1441;48.886;8.728;2023-11-21T06:08:09;7.90;99.90
2867;DHT22;1441;48.886;8.728;2023-11-21T06:10:34;7.90;99.90
2867;DHT22;1441;48.886;8.728;2023-11-21T06:13:00;8.00;99.90
2867;DHT22;1441;48.886;8.728;2023-11-21T06:15:25;8.00;99.90
2867;DHT22;1441;48.886;8.728;2023-11-21T06:17:51;8.00;99.90
2867;DHT22;1441;48.886;8.728;2023-11-21T06:20:20;8.00;99.90
2867;DHT22;1441;48.886;8.728;2023-11-21T06:22:47;8.10;99.90
2867;DHT22;1441;48.886;8.728;2023-11-21T06:25:13;8.10;99.90
2867;DHT22;1441;48.886;8.728;2023-11-21T06:27:45;8.20;99.90
2867;DHT22;1441;48.886;8.728;2023-11-21T06:30:11;8.20;99.90
2867;DHT22;1441;48.886;8.728;2023-11-21T06:32:38;8.20;99.90
2867;DHT22;1441;48.886;8.728;2023-11-21T06:35:05;8.30;99.90
2867;DHT22;1441;48.886;8.728;2023-11-21T06:37:31;8.30;99.90
2867;DHT22;1441;48.886;8.728;2023-11-21T06:39:58;8.30;99.90
2867;DHT22;1441;48.886;8.728;2023-11-21T06:42:24;8.30;99.90
2867;DHT22;1441;48.886;8.728;2023-11-21T06:44:50;8.40;99.90
2867;DHT22;1441;48.886;8.728;2023-11-21T06:47:19;8.40;99.90
2867;DHT22;1441;48.886;8.728;2023-11-21T06:49:50;8.40;99.90
2867;DHT22;1441;48.886;8.728;2023-11-21T06:52:16;8.40;99.90
2867;DHT22;1441;48.886;8.728;2023-11-21T06:54:42;8.40;99.90
2867;DHT22;1441;48.886;8.728;2023-11-21T06:57:08;8.40;99.90
2867;DHT22;1441;48.886;8.728;2023-11-21T06:59:33;8.40;99.90
2867;DHT22;1441;48.886;8.728;2023-11-21T07:01:59;8.40;99.90
2867;DHT22;1441;48.886;8.728;2023-11-21T07:04:25;8.50;99.90
2867;DHT22;1441;48.886;8.728;2023-11-21T07:06:54;8.50;99.90
2867;DHT22;1441;48.886;8.728;2023-11-21T07:09:20;8.50;99.90
2867;DHT22;1441;48.886;8.728;2023-11-21T07:11:48;8.50;99.90
2867;DHT22;1441;48.886;8.728;2023-11-21T07:14:14;8.50;99.90
2867;DHT22;1441;48.886;8.728;2023-11-21T07:16:39;8.50;99.90
2867;DHT22;1441;48.886;8.728;2023-11-21T07:19:05;8.50;99.90
2867;DHT22;1441;48.886;8.728;2023-11-21T07:21:34;8.50;99.90
2867;DHT22;1441;48.886;8.728;2023-11-21T07:24:05;8.40;99.90
2867;DHT22;1441;48.886;8.728;2023-11-21T07:26:34;8.50;99.90
2867;DHT22;1441;48.886;8.728;2023-11-21T07:29:04;8.50;99.90
2867;DHT22;1441;48.886;8.728;2023-11-21T07:31:31;8.50;99.90
2867;DHT22;1441;48.886;8.728;2023-11-21T07:33:59;8.50;99.90
2867;DHT22;1441;48.886;8.728;2023-11-21T07:36:25;8.60;99.90
2867;DHT22;1441;48.886;8.728;2023-11-21T07:38:51;8.60;99.90
2867;DHT22;1441;48.886;8.728;2023-11-21T07:41:18;8.60;99.90
2867;DHT22;1441;48.886;8.728;2023-11-21T07:43:44;8.60;99.90
2867;DHT22;1441;48.886;8.728;2023-11-21T07:46:11;8.60;99.90
2867;DHT22;1441;48.886;8.728;2023-11-21T07:48:38;8.50;99.90
2867;DHT22;1441;48.886;8.728;2023-11-21T07:51:03;8.60;99.90
2867;DHT22;1441;48.886;8.728;2023-11-21T07:53:29;8.60;99.90
2867;DHT22;1441;48.886;8.728;2023-11-21T07:55:56;8.60;99.90
2867;DHT22;1441;48.886;8.728;2023-11-21T07:58:21;8.60;99.90
2867;DHT22;1441;48.886;8.728;2023-11-21T08:00:47;8.60;99.90
2867;DHT22;1441;48.886;8.728;2023-11-21T08:03:13;8.60;99.90
2867;DHT22;1441;48.886;8.728;2023-11-21T08:05:39;8.60;99.90
2867;DHT22;1441;48.886;8.728;2023-11-21T08:08:05;8.60;99.90
2867;DHT22;1441;48.886;8.728;2023-11-21T08:10:30;8.60;99.90
2867;DHT22;1441;48.886;8.728;2023-11-21T08:12:56;8.70;99.90
2867;DHT22;1441;48.886;8.728;2023-11-21T08:15:23;8.70;99.90
2867;DHT22;1441;48.886;8.728;2023-11-21T08:17:49;8.70;99.90
2867;DHT22;1441;48.886;8.728;2023-11-21T08:20:14;8.70;99.90
2867;DHT22;1441;48.886;8.728;2023-11-21T08:22:46;8.70;99.90
2867;DHT22;1441;48.886;8.728;2023-11-21T08:25:13;8.70;99.90
2867;DHT22;1441;48.886;8.728;2023-11-21T08:27:38;8.80;99.90
2867;DHT22;1441;48.886;8.728;2023-11-21T08:30:04;8.80;99.90
2867;DHT22;1441;48.886;8.728;2023-11-21T08:32:30;8.70;99.90
2867;DHT22;1441;48.886;8.728;2023-11-21T08:34:58;8.80;99.90
2867;DHT22;1441;48.886;8.728;2023-11-21T08:37:23;8.80;99.90
2867;DHT22;1441;48.886;8.728;2023-11-21T08:39:49;8.80;99.90
2867;DHT22;1441;48.886;8.728;2023-11-21T08:42:15;8.80;99.90
2867;DHT22;1441;48.886;8.728;2023-11-21T08:44:40;8.80;99.90
2867;DHT22;1441;48.886;8.728;2023-11-21T08:47:06;8.80;99.90
2867;DHT22;1441;48.886;8.728;2023-11-21T08:49:32;8.80;99.90
2867;DHT22;1441;48.886;8.728;2023-11-21T08:51:58;8.80;99.90
2867;DHT22;1441;48.886;8.728;2023-11-21T08:54:26;8.80;99.90
2867;DHT22;1441;48.886;8.728;2023-11-21T08:56:53;8.80;99.90
2867;DHT22;1441;48.886;8.728;2023-11-21T08:59:20;8.80;99.90
2867;DHT22;1441;48.886;8.728;2023-11-21T09:01:46;8.80;99.90
2867;DHT22;1441;48.886;8.728;2023-11-21T09:04:12;8.90;99.90
2867;DHT22;1441;48.886;8.728;2023-11-21T09:06:38;8.90;99.90
2867;DHT22;1441;48.886;8.728;2023-11-21T09:09:04;8.90;99.90
2867;DHT22;1441;48.886;8.728;2023-11-21T09:11:34;8.90;99.90
2867;DHT22;1441;48.886;8.728;2023-11-21T09:14:03;8.90;99.90
2867;DHT22;1441;48.886;8.728;2023-11-21T09:16:29;9.00;99.90
2867;DHT22;1441;48.886;8.728;2023-11-21T09:18:54;9.00;99.90
2867;DHT22;1441;48.886;8.728;2023-11-21T09:21:20;9.00;99.90
2867;DHT22;1441;48.886;8.728;2023-11-21T09:23:45;9.00;99.90
2867;DHT22;1441;48.886;8.728;2023-11-21T09:26:11;9.00;99.90
2867;DHT22;1441;48.886;8.728;2023-11-21T09:28:37;9.10;99.90
2867;DHT22;1441;48.886;8.728;2023-11-21T09:31:04;9.10;99.90
2867;DHT22;1441;48.886;8.728;2023-11-21T09:33:30;9.10;99.90
2867;DHT22;1441;48.886;8.728;2023-11-21T09:35:56;9.10;99.90
2867;DHT22;1441;48.886;8.728;2023-11-21T09:38:22;9.10;99.90
2867;DHT22;1441;48.886;8.728;2023-11-21T09:40:48;9.10;99.90
2867;DHT22;1441;48.886;8.728;2023-11-21T09:43:17;9.10;99.90
2867;DHT22;1441;48.886;8.728;2023-11-21T09:45:47;9.10;99.90
2867;DHT22;1441;48.886;8.728;2023-11-21T09:48:14;9.10;99.90
2867;DHT22;1441;48.886;8.728;2023-11-21T09:50:42;9.10;99.90
2867;DHT22;1441;48.886;8.728;2023-11-21T09:55:42;9.10;99.90
2867;DHT22;1441;48.886;8.728;2023-11-21T09:58:09;9.10;99.90
2867;DHT22;1441;48.886;8.728;2023-11-21T10:00:40;9.10;99.90
2867;DHT22;1441;48.886;8.728;2023-11-21T10:03:05;9.10;99.90
2867;DHT22;1441;48.886;8.728;2023-11-21T10:05:31;9.20;99.90
2867;DHT22;1441;48.886;8.728;2023-11-21T10:07:59;9.20;99.90
2867;DHT22;1441;48.886;8.728;2023-11-21T10:10:26;9.20;99.90
2867;DHT22;1441;48.886;8.728;2023-11-21T10:12:56;9.30;99.90
2867;DHT22;1441;48.886;8.728;2023-11-21T10:15:23;9.20;99.90
2867;DHT22;1441;48.886;8.728;2023-11-21T10:17:53;9.20;99.90
2867;DHT22;1441;48.886;8.728;2023-11-21T10:20:21;9.20;99.90
2867;DHT22;1441;48.886;8.728;2023-11-21T10:22:49;9.20;99.90
2867;DHT22;1441;48.886;8.728;2023-11-21T10:25:15;9.20;99.90
2867;DHT22;1441;48.886;8.728;2023-11-21T10:27:42;9.20;99.90
2867;DHT22;1441;48.886;8.728;2023-11-21T10:30:09;9.20;99.90
2867;DHT22;1441;48.886;8.728;2023-11-21T10:32:42;9.30;99.90
2867;DHT22;1441;48.886;8.728;2023-11-21T10:35:08;9.30;99.90
2867;DHT22;1441;48.886;8.728;2023-11-21T10:37:41;9.30;99.90
2867;DHT22;1441;48.886;8.728;2023-11-21T10:40:10;9.40;99.90
2867;DHT22;1441;48.886;8.728;2023-11-21T10:42:39;9.40;99.90
2867;DHT22;1441;48.886;8.728;2023-11-21T10:45:06;9.40;99.90
2867;DHT22;1441;48.886;8.728;2023-11-21T10:47:44;9.50;99.90
2867;DHT22;1441;48.886;8.728;2023-11-21T10:50:10;9.60;99.90
2867;DHT22;1441;48.886;8.728;2023-11-21T10:52:45;9.80;99.90
2867;DHT22;1441;48.886;8.728;2023-11-21T10:55:19;9.80;99.90
2867;DHT22;1441;48.886;8.728;2023-11-21T10:57:52;9.90;99.90
2867;DHT22;1441;48.886;8.728;2023-11-21T11:00:18;9.80;99.90
2867;DHT22;1441;48.886;8.728;2023-11-21T11:02:49;9.80;99.90
2867;DHT22;1441;48.886;8.728;2023-11-21T11:05:19;9.70;99.90
2867;DHT22;1441;48.886;8.728;2023-11-21T11:07:48;9.60;99.90
2867;DHT22;1441;48.886;8.728;2023-11-21T11:10:13;9.60;99.90
2867;DHT22;1441;48.886;8.728;2023-11-21T11:12:41;9.50;99.90
2867;DHT22;1441;48.886;8.728;2023-11-21T11:15:08;9.50;99.90
2867;DHT22;1441;48.886;8.728;2023-11-21T11:17:36;9.50;99.90
2867;DHT22;1441;48.886;8.728;2023-11-21T11:20:06;9.50;99.90
2867;DHT22;1441;48.886;8.728;2023-11-21T11:25:35;9.40;99.90
2867;DHT22;1441;48.886;8.728;2023-11-21T11:28:07;9.50;99.90
2867;DHT22;1441;48.886;8.728;2023-11-21T11:30:54;9.40;99.90
2867;DHT22;1441;48.886;8.728;2023-11-21T11:33:39;9.40;99.90
2867;DHT22;1441;48.886;8.728;2023-11-21T11:38:56;9.40;99.90
2867;DHT22;1441;48.886;8.728;2023-11-21T11:41:31;9.50;99.90
2867;DHT22;1441;48.886;8.728;2023-11-21T11:44:02;9.40;99.90
2867;DHT22;1441;48.886;8.728;2023-11-21T11:46:44;9.40;99.90
2867;DHT22;1441;48.886;8.728;2023-11-21T11:49:30;9.50;99.90
2867;DHT22;1441;48.886;8.728;2023-11-21T11:55:02;9.50;99.90
2867;DHT22;1441;48.886;8.728;2023-11-21T11:57:31;9.50;99.90
2867;DHT22;1441;48.886;8.728;2023-11-21T12:00:13;9.60;99.90
2867;DHT22;1441;48.886;8.728;2023-11-21T12:02:45;9.70;99.90
2867;DHT22;1441;48.886;8.728;2023-11-21T12:05:15;9.70;99.90
2867;DHT22;1441;48.886;8.728;2023-11-21T12:07:52;9.70;99.90
2867;DHT22;1441;48.886;8.728;2023-11-21T12:10:21;9.70;99.90
2867;DHT22;1441;48.886;8.728;2023-11-21T12:12:49;9.70;99.90
2867;DHT22;1441;48.886;8.728;2023-11-21T12:15:15;9.70;99.90
2867;DHT22;1441;48.886;8.728;2023-11-21T12:17:42;9.70;99.90
2867;DHT22;1441;48.886;8.728;2023-11-21T12:20:18;9.70;99.90
2867;DHT22;1441;48.886;8.728;2023-11-21T12:22:48;9.80;99.90
2867;DHT22;1441;48.886;8.728;2023-11-21T12:25:18;9.80;99.90
2867;DHT22;1441;48.886;8.728;2023-11-21T12:27:46;9.80;99.90
2867;DHT22;1441;48.886;8.728;2023-11-21T12:30:15;9.90;99.90
2867;DHT22;1441;48.886;8.728;2023-11-21T12:32:42;9.90;99.90
2867;DHT22;1441;48.886;8.728;2023-11-21T12:35:09;10.00;99.90
2867;DHT22;1441;48.886;8.728;2023-11-21T12:37:37;10.00;99.90
2867;DHT22;1441;48.886;8.728;2023-11-21T12:40:05;10.10;99.90
2867;DHT22;1441;48.886;8.728;2023-11-21T12:42:32;10.00;99.90
2867;DHT22;1441;48.886;8.728;2023-11-21T12:47:51;9.80;99.90
2867;DHT22;1441;48.886;8.728;2023-11-21T12:50:22;9.80;99.90
2867;DHT22;1441;48.886;8.728;2023-11-21T12:52:57;9.80;99.90
2867;DHT22;1441;48.886;8.728;2023-11-21T12:55:24;9.80;99.90
2867;DHT22;1441;48.886;8.728;2023-11-21T12:57:52;9.80;99.90
2867;DHT22;1441;48.886;8.728;2023-11-21T13:00:31;9.80;99.90
2867;DHT22;1441;48.886;8.728;2023-11-21T13:02:59;9.70;99.90
2867;DHT22;1441;48.886;8.728;2023-11-21T13:05:33;9.70;99.90
2867;DHT22;1441;48.886;8.728;2023-11-21T13:08:01;9.80;99.90
2867;DHT22;1441;48.886;8.728;2023-11-21T13:10:29;9.90;99.90
2867;DHT22;1441;48.886;8.728;2023-11-21T13:13:00;10.00;99.90
2867;DHT22;1441;48.886;8.728;2023-11-21T13:15:27;10.10;99.90
2867;DHT22;1441;48.886;8.728;2023-11-21T13:17:53;10.00;99.90
2867;DHT22;1441;48.886;8.728;2023-11-21T13:20:20;10.00;99.90
2867;DHT22;1441;48.886;8.728;2023-11-21T13:22:53;10.10;99.90
2867;DHT22;1441;48.886;8.728;2023-11-21T13:25:26;10.20;99.90
2867;DHT22;1441;48.886;8.728;2023-11-21T13:27:57;10.30;99.90
2867;DHT22;1441;48.886;8.728;2023-11-21T13:30:23;10.20;99.90
2867;DHT22;1441;48.886;8.728;2023-11-21T13:32:53;10.20;99.90
2867;DHT22;1441;48.886;8.728;2023-11-21T13:35:19;10.20;99.90
2867;DHT22;1441;48.886;8.728;2023-11-21T13:37:56;10.30;99.90
2867;DHT22;1441;48.886;8.728;2023-11-21T13:40:23;10.20;99.90
2867;DHT22;1441;48.886;8.728;2023-11-21T13:42:53;10.20;99.90
2867;DHT22;1441;48.886;8.728;2023-11-21T13:45:22;10.20;99.90
2867;DHT22;1441;48.886;8.728;2023-11-21T13:47:49;10.30;99.90
2867;DHT22;1441;48.886;8.728;2023-11-21T13:50:17;10.30;99.90
2867;DHT22;1441;48.886;8.728;2023-11-21T13:52:48;10.40;99.90
2867;DHT22;1441;48.886;8.728;2023-11-21T13:55:14;10.30;99.90
2867;DHT22;1441;48.886;8.728;2023-11-21T13:57:44;10.20;99.90
2867;DHT22;1441;48.886;8.728;2023-11-21T14:00:15;10.10;99.90
2867;DHT22;1441;48.886;8.728;2023-11-21T14:03:01;10.10;99.90
2867;DHT22;1441;48.886;8.728;2023-11-21T14:05:30;10.00;99.90
2867;DHT22;1441;48.886;8.728;2023-11-21T14:07:57;9.90;99.90
2867;DHT22;1441;48.886;8.728;2023-11-21T14:10:29;9.80;99.90
2867;DHT22;1441;48.886;8.728;2023-11-21T14:13:03;9.80;99.90
2867;DHT22;1441;48.886;8.728;2023-11-21T14:15:29;9.80;99.90
2867;DHT22;1441;48.886;8.728;2023-11-21T14:17:56;9.80;99.90
2867;DHT22;1441;48.886;8.728;2023-11-21T14:20:22;9.90;99.90
2867;DHT22;1441;48.886;8.728;2023-11-21T14:22:47;10.00;99.90
2867;DHT22;1441;48.886;8.728;2023-11-21T14:25:13;9.90;99.90
2867;DHT22;1441;48.886;8.728;2023-11-21T14:27:39;10.00;99.90
2867;DHT22;1441;48.886;8.728;2023-11-21T14:30:05;10.10;99.90
2867;DHT22;1441;48.886;8.728;2023-11-21T14:32:31;9.90;99.90
2867;DHT22;1441;48.886;8.728;2023-11-21T14:34:57;10.00;99.90
2867;DHT22;1441;48.886;8.728;2023-11-21T14:37:23;10.10;99.90
2867;DHT22;1441;48.886;8.728;2023-11-21T14:39:49;10.00;99.90
2867;DHT22;1441;48.886;8.728;2023-11-21T14:42:15;10.10;99.90
2867;DHT22;1441;48.886;8.728;2023-11-21T14:44:41;9.90;99.90
2867;DHT22;1441;48.886;8.728;2023-11-21T14:47:07;9.80;99.90
2867;DHT22;1441;48.886;8.728;2023-11-21T14:49:43;9.80;99.90
2867;DHT22;1441;48.886;8.728;2023-11-21T14:52:21;9.80;99.90
2867;DHT22;1441;48.886;8.728;2023-11-21T14:54:58;9.60;99.90
2867;DHT22;1441;48.886;8.728;2023-11-21T14:57:46;9.60;99.90
2867;DHT22;1441;48.886;8.728;2023-11-21T15:00:16;9.70;99.90
2867;DHT22;1441;48.886;8.728;2023-11-21T15:03:03;9.70;99.90
2867;DHT22;1441;48.886;8.728;2023-11-21T15:05:28;9.70;99.90
2867;DHT22;1441;48.886;8.728;2023-11-21T15:07:55;9.70;99.90
2867;DHT22;1441;48.886;8.728;2023-11-21T15:10:36;9.70;99.90
2867;DHT22;1441;48.886;8.728;2023-11-21T15:13:12;9.60;99.90
2867;DHT22;1441;48.886;8.728;2023-11-21T15:15:39;9.50;99.90
2867;DHT22;1441;48.886;8.728;2023-11-21T15:18:05;9.60;99.90
2867;DHT22;1441;48.886;8.728;2023-11-21T15:20:32;9.60;99.90
2867;DHT22;1441;48.886;8.728;2023-11-21T15:22:57;9.60;99.90
2867;DHT22;1441;48.886;8.728;2023-11-21T15:25:23;9.60;99.90
2867;DHT22;1441;48.886;8.728;2023-11-21T15:27:49;9.60;99.90
2867;DHT22;1441;48.886;8.728;2023-11-21T15:30:16;9.60;99.90
2867;DHT22;1441;48.886;8.728;2023-11-21T15:32:45;9.60;99.90
2867;DHT22;1441;48.886;8.728;2023-11-21T15:35:12;9.60;99.90
2867;DHT22;1441;48.886;8.728;2023-11-21T15:37:40;9.50;99.90
2867;DHT22;1441;48.886;8.728;2023-11-21T15:40:06;9.50;99.90
2867;DHT22;1441;48.886;8.728;2023-11-21T15:42:34;9.40;99.90
2867;DHT22;1441;48.886;8.728;2023-11-21T15:45:01;9.40;99.90
2867;DHT22;1441;48.886;8.728;2023-11-21T15:47:27;9.40;99.90
2867;DHT22;1441;48.886;8.728;2023-11-21T15:49:52;9.40;99.90
2867;DHT22;1441;48.886;8.728;2023-11-21T15:52:18;9.40;99.90
2867;DHT22;1441;48.886;8.728;2023-11-21T15:54:44;9.40;99.90
2867;DHT22;1441;48.886;8.728;2023-11-21T15:57:11;9.40;99.90
2867;DHT22;1441;48.886;8.728;2023-11-21T15:59:40;9.40;99.90
2867;DHT22;1441;48.886;8.728;2023-11-21T16:02:07;9.30;99.90
2867;DHT22;1441;48.886;8.728;2023-11-21T16:04:33;9.30;99.90
2867;DHT22;1441;48.886;8.728;2023-11-21T16:07:01;9.30;99.90
2867;DHT22;1441;48.886;8.728;2023-11-21T16:09:28;9.30;99.90
2867;DHT22;1441;48.886;8.728;2023-11-21T16:12:02;9.30;99.90
2867;DHT22;1441;48.886;8.728;2023-11-21T16:14:35;9.20;99.90
2867;DHT22;1441;48.886;8.728;2023-11-21T16:17:04;9.20;99.90
2867;DHT22;1441;48.886;8.728;2023-11-21T16:19:32;9.20;99.90
2867;DHT22;1441;48.886;8.728;2023-11-21T16:21:58;9.20;99.90
2867;DHT22;1441;48.886;8.728;2023-11-21T16:24:25;9.10;99.90
2867;DHT22;1441;48.886;8.728;2023-11-21T16:26:54;9.10;99.90
2867;DHT22;1441;48.886;8.728;2023-11-21T16:29:23;9.10;99.90
2867;DHT22;1441;48.886;8.728;2023-11-21T16:31:49;9.20;99.90
2867;DHT22;1441;48.886;8.728;2023-11-21T16:34:18;9.30;99.90